createdAt,value
2022-10-11T00:00:01.679Z,2.50
2022-10-11T00:02:29.879Z,2.37
2022-10-11T00:05:14.767Z,2.10
2022-10-11T00:07:56.080Z,5.00
2022-10-11T00:10:38.620Z,2.23
2022-10-11T00:13:25.498Z,1.90
2022-10-11T00:16:13.343Z,2.20
2022-10-11T00:19:00.244Z,1.97
2022-10-11T00:21:45.885Z,1.67
2022-10-11T00:24:28.082Z,1.50
2022-10-11T00:27:11.214Z,1.40
2022-10-11T00:29:56.655Z,1.90
2022-10-11T00:32:42.876Z,1.73
2022-10-11T00:35:24.747Z,1.50
2022-10-11T00:38:07.314Z,2.07
2022-10-11T00:40:50.421Z,1.43
2022-10-11T00:43:34.133Z,2.33
2022-10-11T00:46:32.623Z,2.00
2022-10-11T00:49:24.087Z,2.43
2022-10-11T00:52:15.033Z,1.93
2022-10-11T00:54:58.659Z,2.00
2022-10-11T00:57:44.736Z,1.70
2022-10-11T01:00:27.517Z,1.37
2022-10-11T01:03:09.538Z,1.87
2022-10-11T01:05:51.675Z,2.63
2022-10-11T01:08:34.275Z,1.80
2022-10-11T01:11:16.811Z,2.20
2022-10-11T01:24:32.572Z,1.83
2022-10-11T01:27:36.170Z,1.33
2022-10-11T01:30:27.690Z,2.00
2022-10-11T01:33:21.443Z,1.93
2022-10-11T01:36:08.604Z,1.37
2022-10-11T01:38:53.078Z,2.47
2022-10-11T01:41:38.631Z,1.60
2022-10-11T01:44:21.572Z,1.80
2022-10-11T01:47:03.975Z,1.90
2022-10-11T01:49:46.158Z,1.93
2022-10-11T02:03:03.286Z,5.20
2022-10-11T02:05:48.599Z,5.73
2022-10-11T02:08:36.452Z,5.87
2022-10-11T02:11:22.454Z,3.70
2022-10-11T02:14:09.407Z,3.00
2022-10-11T02:16:55.765Z,2.47
2022-10-11T02:19:42.875Z,3.27
2022-10-11T02:22:28.217Z,3.10
2022-10-11T02:25:20.147Z,3.77
2022-10-11T02:28:05.112Z,3.80
2022-10-11T02:30:51.320Z,3.87
2022-10-11T02:33:38.772Z,3.70
2022-10-11T02:36:25.387Z,3.87
2022-10-11T02:39:11.671Z,3.60
2022-10-11T02:42:03.004Z,3.70
2022-10-11T02:44:59.822Z,3.47
2022-10-11T02:47:42.889Z,3.20
2022-10-11T02:50:25.923Z,3.00
2022-10-11T02:53:08.625Z,3.20
2022-10-11T02:55:50.675Z,3.00
2022-10-11T02:58:33.981Z,3.30
2022-10-11T03:01:16.219Z,3.37
2022-10-11T03:03:59.106Z,3.43
2022-10-11T03:06:40.127Z,3.50
2022-10-11T03:09:21.486Z,3.40
2022-10-11T03:12:03.136Z,3.73
2022-10-11T03:14:45.908Z,3.63
2022-10-11T03:17:36.963Z,4.17
2022-10-11T03:20:18.926Z,3.27
2022-10-11T03:23:03.526Z,4.47
2022-10-11T03:25:46.299Z,7.93
2022-10-11T03:28:28.094Z,4.10
2022-10-11T03:31:10.710Z,5.50
2022-10-11T03:33:53.093Z,11.93
2022-10-11T03:36:39.346Z,3.90
2022-10-11T03:39:26.188Z,3.87
2022-10-11T03:42:10.712Z,3.80
2022-10-11T03:44:52.098Z,3.57
2022-10-11T03:47:33.702Z,6.60
2022-10-11T03:50:15.722Z,5.57
2022-10-11T03:52:58.110Z,3.70
2022-10-11T03:55:42.319Z,3.93
2022-10-11T03:58:24.965Z,5.23
2022-10-11T04:01:07.159Z,3.90
2022-10-11T04:03:48.732Z,3.47
2022-10-11T04:06:31.595Z,4.10
2022-10-11T04:09:12.916Z,3.70
2022-10-11T04:11:54.391Z,3.63
2022-10-11T04:14:36.144Z,3.83
2022-10-11T04:17:18.934Z,3.70
2022-10-11T04:20:01.279Z,3.30
2022-10-11T04:22:46.426Z,3.50
2022-10-11T04:25:27.958Z,3.33
2022-10-11T04:28:09.786Z,3.20
2022-10-11T04:30:51.092Z,2.80
2022-10-11T04:33:32.483Z,3.00
2022-10-11T04:36:16.189Z,3.40
2022-10-11T04:39:01.973Z,4.60
2022-10-11T04:41:44.507Z,3.70
2022-10-11T04:44:32.284Z,3.90
2022-10-11T04:47:13.711Z,3.93
2022-10-11T04:50:00.190Z,3.57
2022-10-11T04:52:41.558Z,4.33
2022-10-11T04:55:24.442Z,3.90
2022-10-11T04:58:06.011Z,3.53
2022-10-11T05:00:49.126Z,3.90
2022-10-11T05:03:30.692Z,4.10
2022-10-11T05:06:12.273Z,3.03
2022-10-11T05:08:55.230Z,3.60
2022-10-11T05:11:38.291Z,3.40
2022-10-11T05:14:21.267Z,3.70
2022-10-11T05:17:02.288Z,4.10
2022-10-11T05:19:45.621Z,4.27
2022-10-11T05:22:27.868Z,3.77
2022-10-11T05:25:10.913Z,3.50
2022-10-11T05:27:54.848Z,3.57
2022-10-11T05:30:35.802Z,3.80
2022-10-11T05:33:18.488Z,3.77
2022-10-11T05:36:00.567Z,4.73
2022-10-11T05:38:44.874Z,3.67
2022-10-11T05:41:26.420Z,4.20
2022-10-11T05:44:09.073Z,3.57
2022-10-11T05:46:50.846Z,4.23
2022-10-11T05:49:32.410Z,2.97
2022-10-11T05:52:13.730Z,3.13
2022-10-11T05:54:55.116Z,3.37
2022-10-11T05:57:36.528Z,3.50
2022-10-11T06:00:18.758Z,3.23
2022-10-11T06:03:00.907Z,3.43
2022-10-11T06:05:55.784Z,3.50
2022-10-11T06:08:39.229Z,3.00
2022-10-11T06:11:23.678Z,3.87
2022-10-11T06:14:47.953Z,3.97
2022-10-11T06:17:43.563Z,4.13
2022-10-11T06:20:43.061Z,3.70
2022-10-11T06:23:41.574Z,4.40
2022-10-11T06:26:41.031Z,4.20
2022-10-11T06:29:21.034Z,4.33
2022-10-11T06:32:21.376Z,3.23
2022-10-11T06:35:20.581Z,4.90
2022-10-11T06:38:18.445Z,3.93
2022-10-11T06:41:26.036Z,3.40
2022-10-11T06:44:36.909Z,4.40
2022-10-11T06:47:33.489Z,4.63
2022-10-11T06:51:00.687Z,4.30
2022-10-11T06:53:57.916Z,3.40
2022-10-11T06:56:56.674Z,3.70
2022-10-11T06:59:54.880Z,3.47
2022-10-11T07:02:54.623Z,3.90
2022-10-11T07:06:03.130Z,3.60
2022-10-11T07:09:17.530Z,4.27
2022-10-11T07:12:17.631Z,4.43
2022-10-11T07:15:31.215Z,4.17
2022-10-11T07:18:30.014Z,6.33
2022-10-11T07:21:28.853Z,6.23
2022-10-11T07:24:27.979Z,6.23
2022-10-11T07:27:25.724Z,5.10
2022-10-11T07:30:33.864Z,5.07
2022-10-11T07:33:33.406Z,3.90
2022-10-11T07:36:47.076Z,4.80
2022-10-11T07:39:43.754Z,4.43
2022-10-11T07:42:39.393Z,4.40
2022-10-11T07:45:39.662Z,4.20
2022-10-11T07:48:31.503Z,3.13
2022-10-11T07:51:29.648Z,4.30
2022-10-11T07:54:28.586Z,4.00
2022-10-11T07:57:36.954Z,4.30
2022-10-11T08:00:46.906Z,3.80
2022-10-11T08:03:45.866Z,4.20
2022-10-11T08:06:42.686Z,4.30
2022-10-11T08:09:25.098Z,4.05
2022-10-11T08:12:36.767Z,3.53
2022-10-11T08:15:34.655Z,3.70
2022-10-11T08:18:31.115Z,3.90
2022-10-11T08:21:27.639Z,3.10
2022-10-11T08:24:32.544Z,3.30
2022-10-11T08:27:29.593Z,3.60
2022-10-11T08:30:31.189Z,3.40
2022-10-11T08:33:27.568Z,3.70
2022-10-11T08:36:29.881Z,3.60
2022-10-11T08:39:31.770Z,3.80
2022-10-11T08:42:36.680Z,3.60
2022-10-11T08:45:34.658Z,2.87
2022-10-11T08:48:37.499Z,3.73
2022-10-11T08:51:43.500Z,4.03
2022-10-11T08:54:44.831Z,3.17
2022-10-11T08:57:50.031Z,3.17
2022-10-11T09:00:48.753Z,3.60
2022-10-11T09:03:39.322Z,3.20
2022-10-11T09:06:31.516Z,3.50
2022-10-11T09:09:26.140Z,3.13
2022-10-11T09:12:13.125Z,2.60
2022-10-11T09:15:12.405Z,2.40
2022-10-11T09:18:19.591Z,2.47
2022-10-11T09:21:12.946Z,3.00
2022-10-11T09:24:27.213Z,2.90
2022-10-11T09:27:15.696Z,4.00
2022-10-11T09:30:01.643Z,2.50
2022-10-11T09:32:32.858Z,2.50
2022-10-11T09:35:03.557Z,2.07
2022-10-11T09:37:35.453Z,2.43
2022-10-11T09:40:13.560Z,2.47
2022-10-11T09:42:41.784Z,1.90
2022-10-11T09:45:19.058Z,2.10
2022-10-11T09:47:49.439Z,2.20
2022-10-11T09:50:20.237Z,1.87
2022-10-11T09:52:52.346Z,2.03
2022-10-11T09:55:36.061Z,2.40
2022-10-11T09:58:05.087Z,1.57
2022-10-11T10:00:34.731Z,2.17
2022-10-11T10:03:04.694Z,1.93
2022-10-11T10:05:33.856Z,2.73
2022-10-11T10:08:09.551Z,2.27
2022-10-11T10:10:40.206Z,1.70
2022-10-11T10:13:20.605Z,2.13
2022-10-11T10:15:51.953Z,2.00
2022-10-11T10:18:23.763Z,2.43
2022-10-11T10:20:53.714Z,1.93
2022-10-11T10:23:25.998Z,1.60
2022-10-11T10:26:11.125Z,1.50
2022-10-11T10:28:39.663Z,2.73
2022-10-11T10:31:22.743Z,2.80
2022-10-11T10:33:55.933Z,1.57
2022-10-11T10:36:27.426Z,2.70
2022-10-11T10:39:00.162Z,4.10
2022-10-11T10:41:28.431Z,3.97
2022-10-11T10:43:58.482Z,1.87
2022-10-11T10:46:48.105Z,4.17
2022-10-11T10:49:48.894Z,1.87
2022-10-11T10:52:30.350Z,2.73
2022-10-11T10:55:01.671Z,3.30
2022-10-11T10:57:37.784Z,2.63
2022-10-11T11:00:13.189Z,1.90
2022-10-11T11:02:58.284Z,2.67
2022-10-11T11:05:32.224Z,3.40
2022-10-11T11:08:08.023Z,2.63
2022-10-11T11:10:40.109Z,2.50
2022-10-11T11:13:19.967Z,3.17
2022-10-11T11:15:53.036Z,2.70
2022-10-11T11:18:30.051Z,2.60
2022-10-11T11:21:09.339Z,1.87
2022-10-11T11:23:42.328Z,1.60
2022-10-11T11:26:16.061Z,2.33
2022-10-11T11:29:08.265Z,2.73
2022-10-11T11:31:50.223Z,2.70
2022-10-11T11:34:23.941Z,2.13
2022-10-11T11:36:56.376Z,2.80
2022-10-11T11:39:26.437Z,2.90
2022-10-11T11:41:57.986Z,5.00
2022-10-11T11:44:29.869Z,5.07
2022-10-11T11:47:01.794Z,7.13
2022-10-11T11:49:35.381Z,7.43
2022-10-11T11:52:13.072Z,4.10
2022-10-11T11:54:47.538Z,3.07
2022-10-11T11:57:24.473Z,3.03
2022-10-11T11:59:59.199Z,2.00
2022-10-11T12:02:41.155Z,2.27
2022-10-11T12:05:12.324Z,2.30
2022-10-11T12:07:59.004Z,2.00
2022-10-11T12:10:31.710Z,2.37
2022-10-11T12:13:08.320Z,2.30
2022-10-11T12:15:37.181Z,2.30
2022-10-11T12:18:13.701Z,1.80
2022-10-11T12:20:44.628Z,1.63
2022-10-11T12:23:49.344Z,2.73
2022-10-11T12:26:31.436Z,2.77
2022-10-11T12:29:06.197Z,1.93
2022-10-11T12:31:36.006Z,2.07
2022-10-11T12:34:18.924Z,3.60
2022-10-11T12:36:50.276Z,1.90
2022-10-11T12:39:51.690Z,1.90
2022-10-11T12:42:31.376Z,2.20
2022-10-11T12:45:35.967Z,2.17
2022-10-11T12:48:19.963Z,1.90
2022-10-11T12:50:54.447Z,2.47
2022-10-11T12:54:02.491Z,2.17
2022-10-11T12:56:44.409Z,2.20
2022-10-11T12:59:18.581Z,2.30
2022-10-11T13:01:52.898Z,4.90
2022-10-11T13:04:22.882Z,1.57
2022-10-11T13:06:53.544Z,2.10
2022-10-11T13:09:30.804Z,2.10
2022-10-11T13:12:04.292Z,2.13
2022-10-11T13:14:36.378Z,1.60
2022-10-11T13:17:15.007Z,2.23
2022-10-11T13:19:43.079Z,2.13
2022-10-11T13:22:18.653Z,2.07
2022-10-11T13:24:48.602Z,2.13
2022-10-11T13:27:21.060Z,2.40
2022-10-11T13:29:50.729Z,1.93
2022-10-11T13:32:22.502Z,2.07
2022-10-11T13:37:27.076Z,1.57
2022-10-11T13:39:57.695Z,2.13
2022-10-11T13:42:30.305Z,2.87
2022-10-11T13:44:59.303Z,1.70
2022-10-11T13:47:29.856Z,2.20
2022-10-11T13:50:12.382Z,2.43
2022-10-11T13:52:53.021Z,1.30
2022-10-11T13:55:34.816Z,1.70
2022-10-11T13:58:05.132Z,1.23
2022-10-11T14:00:36.140Z,1.63
2022-10-11T14:03:07.841Z,2.77
2022-10-11T14:05:38.256Z,2.73
2022-10-11T14:08:08.442Z,2.43
2022-10-11T14:10:38.058Z,1.93
2022-10-11T14:13:24.166Z,1.53
2022-10-11T14:16:29.573Z,2.03
2022-10-11T14:19:10.364Z,1.93
2022-10-11T14:21:51.644Z,1.80
2022-10-11T14:24:20.616Z,1.63
2022-10-11T14:26:51.289Z,1.83
2022-10-11T14:29:23.502Z,2.73
2022-10-11T14:31:52.262Z,1.77
2022-10-11T14:34:22.612Z,2.07
2022-10-11T14:36:51.475Z,2.00
2022-10-11T14:39:21.596Z,1.57
2022-10-11T14:41:51.427Z,2.03
2022-10-11T14:44:20.695Z,1.43
2022-10-11T14:46:50.517Z,2.10
2022-10-11T14:49:21.448Z,2.40
2022-10-11T14:51:51.074Z,1.97
2022-10-11T14:54:22.315Z,2.40
2022-10-11T14:56:53.315Z,1.83
2022-10-11T14:59:24.215Z,1.67
2022-10-11T15:01:54.127Z,2.63
2022-10-11T15:04:23.061Z,1.60
2022-10-11T15:06:51.883Z,1.80
2022-10-11T15:09:21.045Z,1.93
2022-10-11T15:11:51.649Z,1.70
2022-10-11T15:14:20.012Z,1.93
2022-10-11T15:16:48.162Z,1.60
2022-10-11T15:19:18.395Z,2.10
2022-10-11T15:21:47.752Z,2.00
2022-10-11T15:24:16.350Z,2.03
2022-10-11T15:26:45.717Z,2.17
2022-10-11T15:29:17.499Z,1.83
2022-10-11T15:31:46.265Z,2.13
2022-10-11T15:34:14.755Z,1.93
2022-10-11T15:36:42.872Z,2.67
2022-10-11T15:39:25.961Z,1.80
2022-10-11T15:41:54.285Z,2.07
2022-10-11T15:44:29.413Z,3.00
2022-10-11T15:46:57.742Z,2.13
2022-10-11T15:49:25.966Z,2.57
2022-10-11T15:51:54.196Z,1.90
2022-10-11T15:54:22.334Z,2.33
2022-10-11T15:56:50.459Z,2.40
2022-10-11T15:59:18.780Z,3.30
2022-10-11T16:01:48.356Z,2.07
2022-10-11T16:04:16.460Z,4.70
2022-10-11T16:06:44.693Z,2.50
2022-10-11T16:09:12.790Z,5.80
2022-10-11T16:11:40.824Z,9.67
2022-10-11T16:14:09.201Z,6.63
2022-10-11T16:16:38.030Z,10.83
2022-10-11T16:19:07.469Z,4.20
2022-10-11T16:21:35.658Z,3.60
2022-10-11T16:24:04.954Z,5.10
2022-10-11T16:26:33.553Z,5.33
2022-10-11T16:29:01.793Z,5.00
2022-10-11T16:31:29.913Z,5.60
2022-10-11T16:33:57.948Z,7.33
2022-10-11T16:36:36.047Z,4.63
2022-10-11T16:39:07.873Z,3.87
2022-10-11T16:41:35.962Z,4.37
2022-10-11T16:44:10.883Z,4.50
2022-10-11T16:46:38.933Z,4.50
2022-10-11T16:49:07.000Z,5.30
2022-10-11T16:51:36.859Z,5.23
2022-10-11T16:54:05.230Z,5.20
2022-10-11T16:56:38.816Z,6.13
2022-10-11T16:59:08.397Z,5.33
2022-10-11T17:01:36.727Z,5.20
2022-10-11T17:04:05.230Z,5.57
2022-10-11T17:06:33.345Z,6.53
2022-10-11T17:09:04.534Z,5.40
2022-10-11T17:11:32.841Z,5.90
2022-10-11T17:14:02.311Z,6.60
2022-10-11T17:16:30.950Z,6.13
2022-10-11T17:18:59.294Z,7.53
2022-10-11T17:21:27.463Z,7.50
2022-10-11T17:23:55.606Z,6.60
2022-10-11T17:26:27.279Z,6.70
2022-10-11T17:28:56.174Z,7.47
2022-10-11T17:31:25.610Z,6.90
2022-10-11T17:33:54.837Z,6.70
2022-10-11T17:36:24.737Z,7.67
2022-10-11T17:38:53.631Z,8.07
2022-10-11T17:41:21.872Z,7.40
2022-10-11T17:43:51.262Z,8.33
2022-10-11T17:46:25.375Z,9.50
2022-10-11T17:48:54.987Z,8.80
2022-10-11T17:51:23.345Z,8.87
2022-10-11T17:54:06.159Z,8.37
2022-10-11T17:59:49.783Z,8.30
2022-10-11T18:02:17.919Z,9.50
2022-10-11T18:04:46.081Z,9.80
2022-10-11T18:07:14.585Z,9.13
2022-10-11T18:09:42.643Z,10.50
2022-10-11T18:12:10.718Z,10.93
2022-10-11T18:14:38.858Z,10.43
2022-10-11T18:17:08.347Z,10.90
2022-10-11T18:19:38.841Z,10.00
2022-10-11T18:22:07.445Z,10.40
2022-10-11T18:24:35.845Z,10.53
2022-10-11T18:27:03.925Z,10.90
2022-10-11T18:29:32.004Z,12.10
2022-10-11T18:32:00.082Z,10.97
2022-10-11T18:34:29.738Z,12.00
2022-10-11T18:36:57.898Z,11.87
2022-10-11T18:39:25.990Z,11.80
2022-10-11T18:41:54.098Z,12.50
2022-10-11T18:44:22.181Z,12.20
2022-10-11T18:46:51.072Z,11.97
2022-10-11T18:49:19.744Z,12.90
2022-10-11T18:51:49.244Z,11.03
2022-10-11T18:54:20.241Z,12.33
2022-10-11T18:56:49.686Z,12.07
2022-10-11T18:59:17.957Z,10.70
2022-10-11T19:01:46.602Z,13.87
2022-10-11T19:04:16.879Z,13.40
2022-10-11T19:06:47.747Z,12.10
2022-10-11T19:09:21.505Z,12.60
2022-10-11T19:11:50.579Z,13.90
2022-10-11T19:14:20.234Z,13.10
2022-10-11T19:16:51.422Z,14.17
2022-10-11T19:19:20.433Z,14.57
2022-10-11T19:21:48.835Z,14.47
2022-10-11T19:24:19.658Z,14.40
2022-10-11T19:26:48.279Z,15.87
2022-10-11T19:29:18.966Z,15.77
2022-10-11T19:31:48.770Z,14.20
2022-10-11T19:34:16.908Z,14.50
2022-10-11T19:36:45.051Z,15.40
2022-10-11T19:39:14.420Z,15.50
2022-10-11T19:41:44.971Z,15.00
2022-10-11T19:44:13.920Z,14.70
2022-10-11T19:46:51.604Z,15.30
2022-10-11T19:49:22.619Z,15.40
2022-10-11T19:51:51.376Z,15.50
2022-10-11T19:54:19.815Z,14.63
2022-10-11T19:56:49.403Z,15.70
2022-10-11T19:59:18.752Z,14.37
2022-10-11T20:01:51.274Z,14.17
2022-10-11T20:07:08.637Z,17.13
2022-10-11T20:09:36.781Z,17.07
2022-10-11T20:12:06.493Z,17.53
2022-10-11T20:14:36.907Z,16.50
2022-10-11T20:17:04.941Z,16.07
2022-10-11T20:19:32.931Z,18.07
2022-10-11T20:22:01.578Z,16.53
2022-10-11T20:24:33.699Z,16.90
2022-10-11T20:27:02.966Z,17.53
2022-10-11T20:29:32.358Z,16.50
2022-10-11T20:32:00.411Z,19.30
2022-10-11T20:34:29.005Z,17.90
2022-10-11T20:36:57.089Z,16.77
2022-10-11T20:39:25.368Z,17.00
2022-10-11T20:41:53.455Z,17.10
2022-10-11T20:44:21.489Z,16.80
2022-10-11T20:46:53.513Z,15.63
2022-10-11T20:49:22.523Z,17.33
2022-10-11T20:51:50.833Z,18.97
2022-10-11T20:54:18.870Z,18.97
2022-10-11T20:56:46.978Z,18.97
2022-10-11T20:59:15.015Z,17.77
2022-10-11T21:01:43.521Z,18.60
2022-10-11T21:04:19.559Z,18.77
2022-10-11T21:06:48.353Z,18.60
2022-10-11T21:09:17.169Z,16.53
2022-10-11T21:11:45.572Z,19.70
2022-10-11T21:14:13.677Z,19.17
2022-10-11T21:16:42.062Z,18.83
2022-10-11T21:19:14.481Z,17.80
2022-10-11T21:21:42.488Z,18.37
2022-10-11T21:24:10.774Z,19.43
2022-10-11T21:26:38.867Z,19.17
2022-10-11T21:29:07.616Z,19.63
2022-10-11T21:31:35.736Z,18.67
2022-10-11T21:34:05.383Z,18.03
2022-10-11T21:36:35.181Z,19.27
2022-10-11T21:39:03.757Z,19.97
2022-10-11T21:41:31.790Z,18.97
2022-10-11T21:43:59.950Z,21.67
2022-10-11T21:46:47.980Z,22.97
2022-10-11T21:49:17.901Z,20.63
2022-10-11T21:51:47.425Z,20.00
2022-10-11T21:54:15.486Z,22.00
2022-10-11T21:56:43.741Z,21.90
2022-10-11T21:59:12.910Z,22.43
2022-10-11T22:01:41.246Z,21.10
2022-10-11T22:04:09.430Z,22.40
2022-10-11T22:06:38.083Z,20.20
2022-10-11T22:09:09.245Z,21.50
2022-10-11T22:11:37.909Z,21.60
2022-10-11T22:14:06.187Z,21.15
2022-10-11T22:16:34.357Z,21.20
2022-10-11T22:19:02.667Z,22.40
2022-10-11T22:21:30.832Z,20.90
2022-10-11T22:23:58.850Z,22.10
2022-10-11T22:26:31.089Z,22.20
2022-10-11T22:28:59.537Z,20.50
2022-10-11T22:31:28.991Z,22.07
2022-10-11T22:33:57.924Z,22.73
2022-10-11T22:36:26.580Z,22.70
2022-10-11T22:38:55.141Z,22.47
2022-10-11T22:41:23.723Z,22.50
2022-10-11T22:43:53.366Z,23.13
2022-10-11T22:46:21.305Z,22.00
2022-10-11T22:48:49.292Z,21.97
2022-10-11T22:51:17.564Z,20.17
2022-10-11T22:53:45.664Z,22.70
2022-10-11T22:56:13.749Z,25.20
2022-10-11T22:58:41.722Z,25.73
2022-10-11T23:01:12.549Z,24.60
2022-10-11T23:03:40.765Z,23.60
2022-10-11T23:06:09.100Z,24.87
2022-10-11T23:08:37.151Z,24.13
2022-10-11T23:11:06.090Z,24.90
2022-10-11T23:13:34.183Z,23.30
2022-10-11T23:16:07.077Z,21.60
2022-10-11T23:18:36.979Z,24.00
2022-10-11T23:21:06.019Z,23.23
2022-10-11T23:23:34.094Z,22.73
2022-10-11T23:26:03.666Z,21.60
2022-10-11T23:28:32.066Z,23.50
2022-10-11T23:31:00.513Z,22.70
2022-10-11T23:33:29.178Z,22.50
2022-10-11T23:35:58.530Z,23.13
2022-10-11T23:38:26.658Z,24.80
2022-10-11T23:40:54.658Z,24.47
2022-10-11T23:43:22.832Z,26.47
2022-10-11T23:45:51.286Z,27.90
2022-10-11T23:48:19.284Z,25.77
2022-10-11T23:50:51.808Z,25.00
2022-10-11T23:53:21.235Z,26.57
2022-10-11T23:55:49.529Z,25.93
2022-10-11T23:58:17.561Z,26.20
